createdAt,value
2018-05-07T00:00:26.408Z,18.60
2018-05-07T00:02:53.883Z,18.50
2018-05-07T00:05:21.414Z,18.40
2018-05-07T00:07:48.855Z,18.30
2018-05-07T00:10:17.335Z,18.10
2018-05-07T00:12:45.550Z,18.00
2018-05-07T00:15:13.033Z,18.00
2018-05-07T00:17:40.487Z,17.90
2018-05-07T00:20:07.928Z,17.80
2018-05-07T00:22:35.441Z,17.70
2018-05-07T00:25:02.867Z,17.60
2018-05-07T00:27:30.340Z,17.60
2018-05-07T00:29:57.784Z,17.60
2018-05-07T00:32:25.243Z,17.60
2018-05-07T00:34:52.699Z,17.50
2018-05-07T00:37:20.187Z,17.40
2018-05-07T00:39:48.395Z,17.20
2018-05-07T00:42:15.878Z,17.20
2018-05-07T00:44:43.315Z,17.20
2018-05-07T00:47:10.782Z,17.10
2018-05-07T00:49:38.227Z,17.00
2018-05-07T00:52:05.695Z,16.90
2018-05-07T00:57:30.523Z,16.70
2018-05-07T00:59:58.013Z,16.60
2018-05-07T01:02:26.266Z,16.50
2018-05-07T01:04:53.780Z,16.40
2018-05-07T01:07:21.291Z,16.40
2018-05-07T01:09:48.794Z,16.30
2018-05-07T01:12:16.317Z,16.20
2018-05-07T01:14:43.810Z,16.20
2018-05-07T01:17:11.331Z,16.10
2018-05-07T01:19:39.632Z,16.10
2018-05-07T01:22:07.886Z,16.00
2018-05-07T01:24:35.359Z,16.00
2018-05-07T01:27:03.621Z,16.00
2018-05-07T01:29:31.156Z,16.10
2018-05-07T01:31:58.644Z,16.10
2018-05-07T01:34:26.116Z,15.90
2018-05-07T01:36:54.381Z,15.80
2018-05-07T01:39:21.860Z,15.80
2018-05-07T01:41:49.350Z,15.60
2018-05-07T01:44:16.834Z,15.40
2018-05-07T01:46:44.425Z,15.30
2018-05-07T01:49:12.672Z,15.40
2018-05-07T01:51:40.160Z,15.40
2018-05-07T01:54:08.420Z,15.30
2018-05-07T01:56:36.695Z,15.30
2018-05-07T01:59:04.970Z,15.10
2018-05-07T02:01:32.434Z,15.10
2018-05-07T02:04:00.702Z,14.80
2018-05-07T02:06:28.239Z,14.70
2018-05-07T02:08:55.759Z,14.80
2018-05-07T02:11:23.235Z,14.70
2018-05-07T02:13:50.725Z,14.60
2018-05-07T02:16:18.232Z,14.50
2018-05-07T02:18:45.740Z,14.50
2018-05-07T02:21:13.213Z,14.40
2018-05-07T02:23:41.511Z,14.50
2018-05-07T02:26:09.781Z,14.50
2018-05-07T02:28:38.071Z,14.30
2018-05-07T02:31:06.316Z,14.20
2018-05-07T02:33:33.818Z,14.20
2018-05-07T02:36:01.357Z,14.30
2018-05-07T02:38:28.897Z,14.20
2018-05-07T02:40:57.177Z,14.10
2018-05-07T02:43:25.475Z,14.00
2018-05-07T02:45:53.729Z,14.00
2018-05-07T02:48:22.035Z,14.00
2018-05-07T02:50:49.545Z,14.00
2018-05-07T02:53:17.040Z,13.80
2018-05-07T02:55:45.265Z,13.80
2018-05-07T02:58:12.760Z,13.70
2018-05-07T03:00:41.000Z,13.70
2018-05-07T03:03:08.527Z,13.70
2018-05-07T03:05:36.000Z,13.50
2018-05-07T03:08:03.477Z,13.40
2018-05-07T03:10:30.972Z,13.20
2018-05-07T03:12:59.225Z,13.00
2018-05-07T03:15:26.728Z,13.00
2018-05-07T03:17:54.207Z,13.00
2018-05-07T03:20:21.688Z,13.00
2018-05-07T03:22:49.180Z,13.00
2018-05-07T03:25:17.431Z,12.90
2018-05-07T03:27:44.939Z,12.90
2018-05-07T03:30:12.459Z,12.90
2018-05-07T03:32:39.933Z,12.80
2018-05-07T03:35:08.200Z,12.80
2018-05-07T03:37:36.459Z,12.70
2018-05-07T03:40:03.952Z,12.70
2018-05-07T03:42:32.222Z,12.60
2018-05-07T03:45:00.494Z,12.40
2018-05-07T03:47:28.757Z,12.30
2018-05-07T03:49:56.270Z,12.30
2018-05-07T03:52:23.740Z,12.30
2018-05-07T03:54:51.242Z,12.30
2018-05-07T03:57:19.496Z,12.20
2018-05-07T03:59:47.021Z,12.20
2018-05-07T04:02:15.213Z,12.10
2018-05-07T04:04:42.759Z,12.00
2018-05-07T04:07:10.208Z,11.90
2018-05-07T04:09:37.660Z,11.90
2018-05-07T04:12:05.174Z,11.90
2018-05-07T04:14:32.633Z,12.10
2018-05-07T04:17:11.995Z,12.10
2018-05-07T04:19:51.413Z,12.10
2018-05-07T04:22:31.596Z,12.00
2018-05-07T04:24:59.059Z,12.00
2018-05-07T04:27:26.501Z,12.00
2018-05-07T04:29:53.975Z,12.10
2018-05-07T04:32:21.483Z,12.10
2018-05-07T04:34:48.952Z,12.00
2018-05-07T04:37:16.420Z,11.90
2018-05-07T04:39:44.654Z,11.80
2018-05-07T04:42:12.145Z,11.80
2018-05-07T04:44:39.612Z,11.80
2018-05-07T04:47:07.828Z,11.70
2018-05-07T04:49:35.355Z,11.60
2018-05-07T04:52:02.827Z,11.60
2018-05-07T04:54:30.281Z,11.60
2018-05-07T04:56:57.757Z,11.50
2018-05-07T04:59:25.212Z,11.50
2018-05-07T05:01:52.715Z,11.50
2018-05-07T05:04:20.175Z,11.50
2018-05-07T05:06:47.777Z,11.70
2018-05-07T05:09:15.258Z,11.60
2018-05-07T05:11:42.725Z,11.60
2018-05-07T05:14:10.267Z,11.60
2018-05-07T05:16:37.726Z,11.60
2018-05-07T05:19:05.195Z,11.60
2018-05-07T05:21:32.706Z,11.70
2018-05-07T05:24:00.125Z,11.80
2018-05-07T05:26:27.589Z,12.00
2018-05-07T05:28:55.081Z,12.10
2018-05-07T05:31:23.301Z,12.10
2018-05-07T05:33:50.823Z,12.10
2018-05-07T05:36:18.434Z,12.20
2018-05-07T05:38:45.945Z,12.30
2018-05-07T05:41:13.496Z,12.40
2018-05-07T05:43:41.897Z,12.70
2018-05-07T05:46:09.428Z,12.70
2018-05-07T05:48:37.989Z,12.80
2018-05-07T05:51:05.500Z,12.80
2018-05-07T05:53:32.993Z,12.80
2018-05-07T05:56:00.486Z,12.80
2018-05-07T05:58:28.729Z,13.00
2018-05-07T06:00:56.199Z,12.90
2018-05-07T06:03:23.660Z,13.00
2018-05-07T06:05:51.112Z,13.00
2018-05-07T06:08:18.563Z,13.00
2018-05-07T06:10:46.015Z,13.10
2018-05-07T06:13:13.459Z,13.30
2018-05-07T06:15:40.927Z,13.30
2018-05-07T06:18:08.467Z,13.40
2018-05-07T06:20:35.915Z,13.50
2018-05-07T06:23:03.369Z,13.50
2018-05-07T06:25:30.822Z,13.70
2018-05-07T06:27:58.268Z,13.80
2018-05-07T06:30:25.723Z,13.90
2018-05-07T06:35:27.204Z,14.00
2018-05-07T06:37:54.655Z,14.10
2018-05-07T06:40:22.098Z,14.20
2018-05-07T06:42:50.324Z,14.50
2018-05-07T06:45:17.788Z,14.50
2018-05-07T06:47:45.246Z,14.60
2018-05-07T06:50:12.695Z,14.80
2018-05-07T06:52:40.154Z,15.00
2018-05-07T06:55:07.614Z,15.10
2018-05-07T06:57:35.068Z,15.30
2018-05-07T07:00:02.509Z,15.50
2018-05-07T07:02:30.081Z,15.70
2018-05-07T07:04:57.415Z,15.90
2018-05-07T07:07:24.903Z,16.10
2018-05-07T07:09:52.321Z,16.30
2018-05-07T07:12:19.780Z,16.40
2018-05-07T07:14:47.227Z,16.50
2018-05-07T07:17:14.673Z,16.60
2018-05-07T07:19:42.874Z,16.90
2018-05-07T07:22:10.331Z,16.80
2018-05-07T07:24:37.787Z,16.90
2018-05-07T07:27:05.237Z,17.10
2018-05-07T07:29:32.696Z,17.30
2018-05-07T07:32:00.151Z,17.40
2018-05-07T07:34:27.591Z,17.60
2018-05-07T07:36:55.828Z,18.10
2018-05-07T07:39:23.358Z,18.10
2018-05-07T07:41:50.723Z,18.40
2018-05-07T07:44:18.173Z,18.70
2018-05-07T07:46:45.631Z,18.90
2018-05-07T07:49:13.083Z,19.40
2018-05-07T07:51:40.530Z,19.80
2018-05-07T07:54:07.975Z,20.20
2018-05-07T07:56:35.441Z,20.50
2018-05-07T07:59:02.882Z,20.90
2018-05-07T08:01:31.100Z,21.50
2018-05-07T08:03:58.551Z,21.50
2018-05-07T08:06:26.006Z,21.70
2018-05-07T08:08:53.453Z,21.80
2018-05-07T08:11:20.910Z,21.90
2018-05-07T08:13:48.355Z,22.20
2018-05-07T08:16:15.836Z,22.40
2018-05-07T08:18:43.283Z,22.40
2018-05-07T08:21:10.724Z,22.60
2018-05-07T08:23:38.177Z,22.90
2018-05-07T08:26:06.378Z,23.00
2018-05-07T08:28:33.840Z,23.00
2018-05-07T08:31:01.291Z,23.20
2018-05-07T08:33:28.742Z,23.30
2018-05-07T08:35:56.179Z,23.50
2018-05-07T08:38:23.639Z,23.60
2018-05-07T08:40:51.088Z,23.80
2018-05-07T08:43:19.306Z,24.10
2018-05-07T08:45:46.761Z,24.10
2018-05-07T08:48:14.206Z,24.10
2018-05-07T08:50:41.653Z,24.30
2018-05-07T08:53:09.202Z,24.40
2018-05-07T08:55:37.299Z,24.60
2018-05-07T08:58:04.759Z,24.60
2018-05-07T09:00:32.205Z,24.90
2018-05-07T09:02:59.688Z,24.90
2018-05-07T09:05:27.125Z,24.90
2018-05-07T09:07:54.581Z,24.90
2018-05-07T09:10:22.032Z,25.10
2018-05-07T09:12:49.497Z,25.30
2018-05-07T09:15:16.947Z,25.50
2018-05-07T09:17:44.387Z,25.60
2018-05-07T09:20:11.831Z,25.60
2018-05-07T09:22:40.064Z,25.90
2018-05-07T09:25:07.529Z,25.90
2018-05-07T09:27:34.989Z,26.30
2018-05-07T09:30:02.427Z,26.30
2018-05-07T09:32:29.883Z,26.30
2018-05-07T09:34:57.325Z,26.40
2018-05-07T09:37:28.123Z,26.30
2018-05-07T09:39:56.331Z,26.50
2018-05-07T09:42:23.800Z,26.50
2018-05-07T09:44:51.238Z,26.60
2018-05-07T09:47:18.679Z,26.80
2018-05-07T09:49:46.901Z,27.00
2018-05-07T09:52:14.347Z,27.00
2018-05-07T09:54:41.799Z,27.10
2018-05-07T09:59:43.097Z,27.60
2018-05-07T10:02:10.535Z,27.80
2018-05-07T10:04:37.994Z,27.70
2018-05-07T10:07:05.526Z,28.00
2018-05-07T10:09:32.986Z,27.70
2018-05-07T10:12:00.428Z,28.00
2018-05-07T10:14:27.894Z,27.90
2018-05-07T10:16:55.339Z,28.00
2018-05-07T10:19:23.575Z,28.40
2018-05-07T10:21:51.034Z,28.40
2018-05-07T10:24:18.568Z,28.60
2018-05-07T10:26:47.937Z,28.70
2018-05-07T10:29:15.434Z,28.80
2018-05-07T10:31:42.888Z,29.10
2018-05-07T10:34:10.361Z,29.20
2018-05-07T10:36:37.802Z,29.30
2018-05-07T10:39:06.144Z,29.40
2018-05-07T10:41:34.344Z,29.40
2018-05-07T10:44:02.697Z,29.40
2018-05-07T10:46:30.186Z,29.50
2018-05-07T10:49:07.714Z,29.60
2018-05-07T10:51:35.173Z,29.90
2018-05-07T10:54:02.631Z,29.90
2018-05-07T10:56:30.084Z,29.80
2018-05-07T10:58:57.531Z,29.80
2018-05-07T11:01:24.987Z,30.00
2018-05-07T11:03:52.432Z,30.00
2018-05-07T11:06:20.074Z,30.10
2018-05-07T11:08:47.630Z,30.10
2018-05-07T11:11:15.132Z,30.10
2018-05-07T11:13:42.617Z,30.10
2018-05-07T11:16:10.872Z,29.90
2018-05-07T11:18:38.394Z,29.90
2018-05-07T11:21:05.941Z,29.90
2018-05-07T11:23:33.473Z,29.80
2018-05-07T11:26:01.731Z,29.80
2018-05-07T11:28:30.046Z,29.80
2018-05-07T11:30:57.532Z,29.80
2018-05-07T11:33:24.990Z,29.70
2018-05-07T11:35:52.488Z,29.50
2018-05-07T11:38:19.987Z,29.30
2018-05-07T11:40:47.455Z,29.10
2018-05-07T11:43:14.895Z,29.10
2018-05-07T11:45:42.386Z,29.10
2018-05-07T11:48:09.904Z,28.90
2018-05-07T11:50:38.152Z,28.70
2018-05-07T11:53:05.662Z,28.80
2018-05-07T11:55:33.884Z,28.40
2018-05-07T11:58:01.476Z,28.40
2018-05-07T12:00:28.955Z,28.30
2018-05-07T12:02:56.899Z,28.40
2018-05-07T12:05:24.379Z,28.30
2018-05-07T12:07:51.829Z,28.30
2018-05-07T12:10:19.296Z,28.10
2018-05-07T12:12:46.750Z,28.00
2018-05-07T12:15:14.220Z,28.10
2018-05-07T12:17:42.797Z,28.00
2018-05-07T12:20:23.316Z,28.00
2018-05-07T12:25:44.841Z,27.80
2018-05-07T12:28:12.369Z,27.80
2018-05-07T12:30:39.912Z,27.70
2018-05-07T12:33:07.376Z,27.60
2018-05-07T12:35:34.962Z,27.60
2018-05-07T12:38:03.993Z,27.50
2018-05-07T12:40:32.297Z,27.40
2018-05-07T12:42:59.807Z,27.40
2018-05-07T12:45:27.311Z,27.30
2018-05-07T12:47:54.780Z,27.20
2018-05-07T12:50:22.267Z,27.30
2018-05-07T12:52:49.759Z,27.20
2018-05-07T12:55:17.998Z,27.30
2018-05-07T12:57:45.464Z,27.20
2018-05-07T13:00:12.931Z,27.20
2018-05-07T13:02:40.408Z,27.20
2018-05-07T13:05:07.879Z,27.10
2018-05-07T13:07:36.117Z,27.00
2018-05-07T13:10:03.645Z,27.00
2018-05-07T13:12:31.130Z,27.00
2018-05-07T13:15:07.416Z,27.00
2018-05-07T13:17:34.883Z,27.00
2018-05-07T13:20:03.128Z,26.90
2018-05-07T13:22:30.612Z,26.90
2018-05-07T13:24:58.170Z,26.90
2018-05-07T13:27:25.639Z,26.90
2018-05-07T13:29:53.861Z,26.80
2018-05-07T13:32:21.324Z,26.80
2018-05-07T13:34:48.788Z,26.80
2018-05-07T13:37:16.255Z,26.80
2018-05-07T13:39:43.713Z,26.70
2018-05-07T13:42:11.164Z,26.70
2018-05-07T13:44:38.636Z,26.70
2018-05-07T13:47:06.160Z,26.70
2018-05-07T13:49:33.594Z,26.70
2018-05-07T13:52:01.078Z,26.60
2018-05-07T13:54:28.541Z,26.50
2018-05-07T13:56:56.165Z,26.40
2018-05-07T13:59:23.555Z,26.40
2018-05-07T14:02:03.438Z,26.40
2018-05-07T14:04:30.884Z,26.40
2018-05-07T14:06:59.373Z,26.40
2018-05-07T14:09:26.996Z,26.40
2018-05-07T14:11:54.487Z,26.30
2018-05-07T14:14:21.941Z,26.30
2018-05-07T14:16:49.441Z,26.40
2018-05-07T14:19:16.883Z,26.40
2018-05-07T14:21:45.113Z,26.30
2018-05-07T14:24:12.732Z,26.30
2018-05-07T14:26:40.961Z,26.30
2018-05-07T14:29:08.406Z,26.30
2018-05-07T14:31:35.869Z,26.30
2018-05-07T14:34:03.330Z,26.30
2018-05-07T14:36:30.870Z,26.30
2018-05-07T14:38:58.335Z,26.30
2018-05-07T14:41:25.790Z,26.30
2018-05-07T14:43:53.294Z,26.40
2018-05-07T14:46:21.555Z,26.40
2018-05-07T14:48:49.045Z,26.30
2018-05-07T14:51:16.608Z,26.30
2018-05-07T14:53:44.876Z,26.30
2018-05-07T14:56:13.133Z,26.30
2018-05-07T14:58:40.678Z,26.30
2018-05-07T15:01:08.131Z,26.30
2018-05-07T15:03:35.631Z,26.30
2018-05-07T15:06:03.981Z,26.20
2018-05-07T15:08:32.153Z,26.20
2018-05-07T15:10:59.668Z,26.10
2018-05-07T15:13:27.162Z,26.10
2018-05-07T15:15:54.700Z,26.00
2018-05-07T15:18:22.164Z,26.00
2018-05-07T15:20:49.652Z,26.00
2018-05-07T15:23:17.166Z,26.00
2018-05-07T15:25:44.639Z,26.00
2018-05-07T15:28:12.116Z,26.00
2018-05-07T15:30:40.521Z,26.00
2018-05-07T15:33:08.791Z,26.00
2018-05-07T15:35:36.277Z,26.00
2018-05-07T15:38:03.780Z,26.00
2018-05-07T15:40:31.260Z,26.00
2018-05-07T15:42:58.742Z,26.00
2018-05-07T15:45:27.021Z,26.00
2018-05-07T15:47:55.295Z,26.00
2018-05-07T15:50:23.546Z,25.90
2018-05-07T15:52:51.063Z,25.90
2018-05-07T15:55:18.549Z,25.90
2018-05-07T15:57:46.035Z,25.80
2018-05-07T16:00:14.313Z,25.80
2018-05-07T16:02:42.582Z,25.80
2018-05-07T16:05:10.078Z,25.80
2018-05-07T16:07:38.146Z,25.80
2018-05-07T16:10:05.638Z,25.80
2018-05-07T16:12:33.148Z,25.80
2018-05-07T16:15:00.721Z,25.80
2018-05-07T16:17:28.145Z,25.80
2018-05-07T16:19:56.393Z,25.80
2018-05-07T16:22:23.885Z,25.70
2018-05-07T16:24:52.125Z,25.80
2018-05-07T16:27:19.597Z,25.80
2018-05-07T16:29:47.039Z,25.80
2018-05-07T16:32:14.511Z,25.80
2018-05-07T16:34:42.340Z,25.80
2018-05-07T16:37:09.869Z,25.80
2018-05-07T16:39:37.362Z,25.70
2018-05-07T16:42:04.836Z,25.70
2018-05-07T16:44:32.297Z,25.60
2018-05-07T16:46:59.800Z,25.60
2018-05-07T16:49:27.998Z,25.60
2018-05-07T16:51:55.481Z,25.60
2018-05-07T16:54:23.122Z,25.60
2018-05-07T16:56:50.586Z,25.60
2018-05-07T16:59:18.167Z,25.50
2018-05-07T17:01:45.653Z,25.50
2018-05-07T17:04:13.253Z,25.40
2018-05-07T17:06:40.763Z,25.40
2018-05-07T17:09:08.247Z,25.40
2018-05-07T17:11:36.458Z,25.40
2018-05-07T17:14:03.987Z,25.40
2018-05-07T17:16:32.233Z,25.30
2018-05-07T17:18:59.734Z,25.20
2018-05-07T17:21:27.979Z,25.20
2018-05-07T17:23:56.290Z,25.10
2018-05-07T17:26:37.678Z,25.10
2018-05-07T17:29:05.173Z,25.10
2018-05-07T17:31:32.647Z,25.10
2018-05-07T17:34:00.247Z,25.10
2018-05-07T17:36:27.664Z,24.90
2018-05-07T17:38:55.948Z,24.90
2018-05-07T17:41:24.245Z,24.90
2018-05-07T17:43:51.701Z,24.90
2018-05-07T17:46:31.010Z,25.00
2018-05-07T17:48:59.409Z,25.00
2018-05-07T17:51:27.673Z,24.90
2018-05-07T17:53:55.913Z,24.90
2018-05-07T17:56:23.410Z,24.80
2018-05-07T17:58:51.681Z,24.70
2018-05-07T18:01:20.179Z,24.70
2018-05-07T18:03:49.934Z,24.60
2018-05-07T18:06:17.538Z,24.70
2018-05-07T18:08:45.796Z,24.60
2018-05-07T18:11:13.273Z,24.60
2018-05-07T18:13:41.599Z,24.50
2018-05-07T18:16:09.091Z,24.50
2018-05-07T18:18:36.577Z,24.50
2018-05-07T18:21:04.884Z,24.40
2018-05-07T18:23:32.393Z,24.40
2018-05-07T18:25:59.888Z,24.50
2018-05-07T18:28:27.410Z,24.40
2018-05-07T18:30:54.929Z,24.30
2018-05-07T18:33:23.722Z,24.30
2018-05-07T18:35:51.267Z,24.20
2018-05-07T18:38:18.754Z,24.10
2018-05-07T18:40:46.217Z,24.00
2018-05-07T18:43:13.746Z,23.90
2018-05-07T18:45:41.241Z,23.90
2018-05-07T18:48:08.725Z,23.80
2018-05-07T18:50:36.997Z,23.60
2018-05-07T18:53:05.243Z,23.50
2018-05-07T18:55:32.739Z,23.50
2018-05-07T18:58:01.030Z,23.60
2018-05-07T19:00:28.529Z,23.50
2018-05-07T19:02:56.883Z,23.50
2018-05-07T19:05:34.419Z,23.30
2018-05-07T19:08:01.901Z,23.20
2018-05-07T19:10:30.153Z,23.00
2018-05-07T19:12:57.636Z,23.00
2018-05-07T19:15:25.176Z,22.90
2018-05-07T19:17:52.669Z,22.70
2018-05-07T19:20:20.260Z,22.50
2018-05-07T19:22:47.762Z,22.30
2018-05-07T19:25:16.037Z,21.90
2018-05-07T19:27:43.541Z,21.90
2018-05-07T19:30:11.098Z,21.90
2018-05-07T19:32:38.743Z,21.80
2018-05-07T19:35:06.228Z,21.60
2018-05-07T19:37:33.753Z,21.40
2018-05-07T19:40:01.288Z,21.40
2018-05-07T19:42:28.776Z,21.30
2018-05-07T19:44:56.269Z,21.20
2018-05-07T19:47:23.778Z,21.10
2018-05-07T19:49:52.064Z,20.90
2018-05-07T19:52:19.579Z,20.90
2018-05-07T19:54:47.096Z,20.80
2018-05-07T19:57:14.640Z,20.80
2018-05-07T19:59:42.168Z,20.70
2018-05-07T20:02:09.686Z,20.50
2018-05-07T20:04:37.234Z,20.50
2018-05-07T20:07:04.748Z,20.60
2018-05-07T20:09:32.347Z,20.50
2018-05-07T20:11:59.853Z,20.40
2018-05-07T20:14:27.357Z,20.30
2018-05-07T20:16:54.938Z,20.20
2018-05-07T20:19:22.426Z,20.10
2018-05-07T20:21:49.989Z,20.10
2018-05-07T20:24:17.504Z,20.00
2018-05-07T20:26:45.061Z,19.90
2018-05-07T20:29:14.610Z,19.90
2018-05-07T20:31:42.155Z,19.80
2018-05-07T20:34:09.801Z,19.80
2018-05-07T20:36:37.324Z,19.70
2018-05-07T20:39:05.596Z,19.70
2018-05-07T20:41:33.977Z,19.40
2018-05-07T20:44:02.239Z,19.30
2018-05-07T20:46:29.755Z,19.30
2018-05-07T20:48:57.276Z,19.30
2018-05-07T20:51:25.601Z,19.10
2018-05-07T20:53:53.253Z,19.10
2018-05-07T20:56:20.760Z,19.10
2018-05-07T20:58:48.268Z,19.10
2018-05-07T21:01:15.803Z,18.90
2018-05-07T21:03:43.314Z,18.80
2018-05-07T21:06:10.863Z,18.70
2018-05-07T21:08:38.347Z,18.70
2018-05-07T21:11:05.848Z,18.70
2018-05-07T21:13:33.374Z,18.60
2018-05-07T21:16:00.901Z,18.40
2018-05-07T21:18:28.530Z,18.30
2018-05-07T21:20:56.025Z,18.10
2018-05-07T21:23:23.520Z,18.00
2018-05-07T21:25:51.809Z,17.90
2018-05-07T21:28:19.328Z,17.80
2018-05-07T21:30:47.632Z,17.80
2018-05-07T21:33:15.894Z,17.60
2018-05-07T21:35:43.490Z,17.60
2018-05-07T21:38:10.995Z,17.50
2018-05-07T21:40:38.551Z,17.40
2018-05-07T21:43:06.059Z,17.40
2018-05-07T21:45:33.588Z,17.30
2018-05-07T21:48:01.072Z,17.30
2018-05-07T21:50:29.372Z,17.30
2018-05-07T21:52:56.861Z,17.30
2018-05-07T21:55:24.365Z,17.20
2018-05-07T21:57:51.914Z,17.20
2018-05-07T22:00:20.151Z,17.20
2018-05-07T22:02:47.686Z,17.20
2018-05-07T22:05:15.197Z,17.30
2018-05-07T22:07:42.718Z,17.20
2018-05-07T22:10:10.228Z,17.20
2018-05-07T22:12:38.505Z,17.00
2018-05-07T22:15:05.983Z,17.00
2018-05-07T22:17:33.519Z,17.00
2018-05-07T22:20:01.788Z,17.00
2018-05-07T22:22:29.272Z,17.00
2018-05-07T22:24:56.796Z,16.90
2018-05-07T22:27:25.105Z,16.90
2018-05-07T22:29:52.620Z,16.80
2018-05-07T22:32:20.141Z,16.80
2018-05-07T22:34:47.633Z,16.80
2018-05-07T22:37:15.153Z,16.80
2018-05-07T22:39:42.637Z,16.80
2018-05-07T22:42:10.141Z,16.80
2018-05-07T22:44:38.397Z,16.70
2018-05-07T22:47:05.918Z,16.60
2018-05-07T22:49:33.443Z,16.70
2018-05-07T22:52:01.018Z,16.70
2018-05-07T22:54:28.484Z,16.80
2018-05-07T22:56:56.029Z,16.70
2018-05-07T22:59:23.538Z,16.80
2018-05-07T23:01:51.060Z,16.60
2018-05-07T23:04:18.549Z,16.60
2018-05-07T23:06:46.121Z,16.50
2018-05-07T23:09:13.628Z,16.50
2018-05-07T23:11:41.169Z,16.50
2018-05-07T23:14:09.422Z,16.30
2018-05-07T23:16:36.957Z,16.30
2018-05-07T23:19:04.467Z,16.40
2018-05-07T23:21:32.009Z,16.30
2018-05-07T23:24:00.272Z,16.30
2018-05-07T23:26:28.556Z,16.30
2018-05-07T23:28:56.103Z,16.30
2018-05-07T23:31:23.605Z,16.20
2018-05-07T23:33:51.167Z,16.20
2018-05-07T23:36:18.685Z,16.30
2018-05-07T23:38:46.196Z,16.30
2018-05-07T23:41:13.724Z,16.20
2018-05-07T23:43:42.017Z,16.10
2018-05-07T23:46:09.545Z,16.10
2018-05-07T23:48:37.836Z,16.00
2018-05-07T23:51:06.120Z,15.90
2018-05-07T23:53:33.684Z,15.90
2018-05-07T23:56:01.965Z,15.80
2018-05-07T23:58:29.509Z,15.80
